WGN77W EBOS-EGKK
Flight info
| Callsign | WGN77W |
|---|---|
| Flight time | N/A |
| Altitude | 16000 |
| Route | KONAN DCT ETVAX DCT OSDEB DCT TIMBA |
| Aircraft | MD11/H-SDE1E2E3FGHIJ2J3J4J5M1RWXY/LB1D1 |
Departure
| Time | 2026-04-29 17:08 |
|---|---|
| Airport | Ostend-Bruges International Airport (EBOS) |
Arrival
| Time | N/A |
|---|---|
| Airport | London Gatwick Airport (EGKK) |
| Time | Latitude | Longitude | Altitude | Speed | Heading |
|---|---|---|---|---|---|
| 2026-04-29 16:40 | 51.19699 | 2.89598 | 13 ft | 0 kts | 98° |
| 2026-04-29 16:55 | 51.19701 | 2.89578 | 13 ft | 2 kts | 101° |
| 2026-04-29 16:55 | 51.19704 | 2.89555 | 13 ft | 2 kts | 101° |
| 2026-04-29 16:56 | 51.19706 | 2.89532 | 13 ft | 2 kts | 100° |
| 2026-04-29 16:56 | 51.19709 | 2.89508 | 13 ft | 2 kts | 100° |
| 2026-04-29 16:56 | 51.19712 | 2.89486 | 13 ft | 1 kts | 100° |
| 2026-04-29 16:56 | 51.19713 | 2.89475 | 13 ft | 1 kts | 72° |
| 2026-04-29 16:57 | 51.19707 | 2.89464 | 13 ft | 1 kts | 19° |
| 2026-04-29 16:57 | 51.19701 | 2.89461 | 13 ft | 0 kts | 9° |
| 2026-04-29 17:02 | 51.19707 | 2.89463 | 13 ft | 3 kts | 10° |
| 2026-04-29 17:02 | 51.19758 | 2.89478 | 13 ft | 12 kts | 11° |
| 2026-04-29 17:02 | 51.19858 | 2.89506 | 13 ft | 16 kts | 9° |
| 2026-04-29 17:03 | 51.19976 | 2.89542 | 13 ft | 18 kts | 16° |
| 2026-04-29 17:03 | 51.20086 | 2.89652 | 13 ft | 19 kts | 46° |
| 2026-04-29 17:03 | 51.20180 | 2.89810 | 13 ft | 18 kts | 45° |
| 2026-04-29 17:03 | 51.20295 | 2.89837 | 13 ft | 18 kts | 323° |
| 2026-04-29 17:04 | 51.20318 | 2.89642 | 13 ft | 20 kts | 256° |
| 2026-04-29 17:04 | 51.20282 | 2.89402 | 13 ft | 24 kts | 256° |
| 2026-04-29 17:04 | 51.20238 | 2.89107 | 14 ft | 29 kts | 257° |
| 2026-04-29 17:04 | 51.20187 | 2.88752 | 13 ft | 35 kts | 258° |
| 2026-04-29 17:05 | 51.20134 | 2.88334 | 13 ft | 41 kts | 259° |
| 2026-04-29 17:05 | 51.20074 | 2.87865 | 14 ft | 43 kts | 251° |
| 2026-04-29 17:05 | 51.19979 | 2.87400 | 18 ft | 45 kts | 256° |
| 2026-04-29 17:05 | 51.19903 | 2.86908 | 17 ft | 46 kts | 256° |
| 2026-04-29 17:06 | 51.19828 | 2.86404 | 16 ft | 43 kts | 256° |
| 2026-04-29 17:06 | 51.19769 | 2.86012 | 16 ft | 29 kts | 256° |
| 2026-04-29 17:06 | 51.19732 | 2.85771 | 16 ft | 15 kts | 256° |
| 2026-04-29 17:06 | 51.19720 | 2.85620 | 16 ft | 15 kts | 275° |
| 2026-04-29 17:07 | 51.19697 | 2.85579 | 16 ft | 5 kts | 112° |
| 2026-04-29 17:07 | 51.19712 | 2.85663 | 16 ft | 10 kts | 72° |
| 2026-04-29 17:07 | 51.19766 | 2.85993 | 16 ft | 68 kts | 75° |
| 2026-04-29 17:07 | 51.19945 | 2.87163 | 19 ft | 146 kts | 77° |
| 2026-04-29 17:08 | 51.20227 | 2.89027 | 192 ft | 192 kts | 75° |
| 2026-04-29 17:08 | 51.20548 | 2.91101 | 1222 ft | 195 kts | 77° |
| 2026-04-29 17:08 | 51.20837 | 2.93044 | 2554 ft | 184 kts | 78° |
| 2026-04-29 17:08 | 51.21124 | 2.95002 | 3443 ft | 193 kts | 79° |
| 2026-04-29 17:09 | 51.21453 | 2.97296 | 4127 ft | 223 kts | 78° |
| 2026-04-29 17:09 | 51.21791 | 2.99579 | 5526 ft | 223 kts | 78° |
| 2026-04-29 17:09 | 51.22275 | 3.02064 | 6412 ft | 243 kts | 58° |
| 2026-04-29 17:09 | 51.23535 | 3.03680 | 7780 ft | 248 kts | 24° |
| 2026-04-29 17:10 | 51.25303 | 3.03933 | 8695 ft | 272 kts | 347° |
| 2026-04-29 17:10 | 51.26907 | 3.02429 | 9949 ft | 283 kts | 317° |
| 2026-04-29 17:10 | 51.27965 | 2.99709 | 10814 ft | 299 kts | 289° |
| 2026-04-29 17:10 | 51.28269 | 2.96475 | 11915 ft | 306 kts | 266° |
| 2026-04-29 17:11 | 51.27912 | 2.93150 | 12940 ft | 308 kts | 257° |
| 2026-04-29 17:11 | 51.27445 | 2.89761 | 13828 ft | 319 kts | 258° |
| 2026-04-29 17:11 | 51.27033 | 2.86373 | 15057 ft | 314 kts | 260° |
| 2026-04-29 17:11 | 51.26629 | 2.82898 | 15743 ft | 327 kts | 258° |
| 2026-04-29 17:12 | 51.26102 | 2.79403 | 15948 ft | 322 kts | 255° |
| 2026-04-29 17:12 | 51.25496 | 2.75926 | 16124 ft | 331 kts | 254° |
| 2026-04-29 17:12 | 51.24880 | 2.72418 | 16185 ft | 328 kts | 255° |
| 2026-04-29 17:12 | 51.24475 | 2.70078 | 16142 ft | 333 kts | 255° |
| 2026-04-29 17:13 | 51.23625 | 2.65011 | 16364 ft | 378 kts | 255° |
| 2026-04-29 17:13 | 51.22928 | 2.60760 | 16372 ft | 415 kts | 255° |
| 2026-04-29 17:13 | 51.22195 | 2.56284 | 16215 ft | 425 kts | 255° |
| 2026-04-29 17:13 | 51.21443 | 2.51712 | 16147 ft | 431 kts | 255° |
| 2026-04-29 17:14 | 51.20665 | 2.46991 | 16207 ft | 451 kts | 255° |
| 2026-04-29 17:14 | 51.19867 | 2.42133 | 16169 ft | 448 kts | 256° |
| 2026-04-29 17:14 | 51.19107 | 2.37464 | 16082 ft | 422 kts | 256° |
| 2026-04-29 17:14 | 51.18384 | 2.33007 | 16223 ft | 422 kts | 255° |
| 2026-04-29 17:15 | 51.17659 | 2.28539 | 16187 ft | 406 kts | 255° |
| 2026-04-29 17:15 | 51.16969 | 2.24273 | 16143 ft | 402 kts | 255° |
| 2026-04-29 17:15 | 51.16270 | 2.19955 | 16180 ft | 402 kts | 255° |
| 2026-04-29 17:15 | 51.15568 | 2.15608 | 16200 ft | 404 kts | 255° |
| 2026-04-29 17:16 | 51.14878 | 2.11308 | 16213 ft | 404 kts | 255° |
| 2026-04-29 17:16 | 51.14187 | 2.06996 | 16176 ft | 403 kts | 255° |
| 2026-04-29 17:16 | 51.13510 | 2.02715 | 16169 ft | 402 kts | 256° |
| 2026-04-29 17:16 | 51.12898 | 1.98348 | 16167 ft | 402 kts | 258° |
| 2026-04-29 17:17 | 51.12394 | 1.93985 | 16188 ft | 404 kts | 259° |
| 2026-04-29 17:17 | 51.11898 | 1.89573 | 16176 ft | 405 kts | 259° |
| 2026-04-29 17:17 | 51.11388 | 1.85199 | 16188 ft | 403 kts | 259° |
| 2026-04-29 17:17 | 51.10872 | 1.80872 | 16185 ft | 402 kts | 259° |
| 2026-04-29 17:18 | 51.10344 | 1.76486 | 16167 ft | 403 kts | 259° |
| 2026-04-29 17:18 | 51.09822 | 1.72146 | 16173 ft | 403 kts | 258° |
| 2026-04-29 17:18 | 51.09297 | 1.67777 | 16177 ft | 402 kts | 259° |
| 2026-04-29 17:18 | 51.08776 | 1.63412 | 16188 ft | 402 kts | 258° |
| 2026-04-29 17:19 | 51.08281 | 1.59255 | 16189 ft | 399 kts | 259° |
| 2026-04-29 17:19 | 51.08001 | 1.56887 | 16152 ft | 382 kts | 258° |